Pagrindinis puslapis
METAR-TAF:

METAR-TAF

Oro uostai :

Čengdu, Kinija

platuma: 30-40N, ilguma: 104-01E, Aukštis: 508 m

Dabartinis oras

Ataskaita buvo paskelbta 1 valandą ir 10 minutes, ne 03:00 UTC
Vėjas 2 kt nuo kintamojo kryptimis
Temperatūra 17°C
Drėgmė 59%
Slėgis 1021 hPa
Matomumas: 3500 m
migla

METAR: ZUUU 070300Z VRB01MPS 3500 HZ NSC 17/09 Q1021 NOSIG

Laikas: 12:10 (04:10 UTC)

Prognozė

Ataskaita buvo paskelbta 7 valandos ir 6 minutes, ne 21:04 UTC
Prognozė galioja nuo 07 metu 00 UTC su 07 metu 24 UTC
Vėjas 6 kt iš Pietų
Matomumas: 2000 m
Išsisklaidę debesys ne aukštis 5000 ft
rūkana
Tapsmas
nuo 07 metu 01 UTC su 07 metu 02 UTC
Matomumas: 5000 m

TAF: ZUUU 062104Z 0700/0724 18003MPS 2000 BR SCT050 TX20/0707Z TN09/0700Z BECMG 0701/0702 5000

Orai ataskaitas ir orų prognozės (METAR, TAF).

turimą stotys yra geltonos ir raudonos taškus žemėlapyje.

Perkelti pele per norėdami pamatyti stoties vardą.

Tada spustelėkite, norėdami matyti oro stebėjimo ir prognozės.

Norėdami pakeisti žemėlapį: spustelėkite ant žalios mygtukų su juodo kryžiaus žemyn,; žalią mygtuką su brūkšneliu, jei norite nutolinti; arba žalių rodyklių gretimoms žemėlapius.


METAR-TAF: